createdAt,value
2023-02-01T00:00:47.425Z,100511.44
2023-02-01T00:05:57.745Z,100515.94
2023-02-01T00:11:02.465Z,100518.19
2023-02-01T00:16:06.526Z,100518.19
2023-02-01T00:21:09.099Z,100517.41
2023-02-01T00:26:17.164Z,100506.88
2023-02-01T00:31:19.743Z,100501.31
2023-02-01T00:36:22.711Z,100497.81
2023-02-01T00:41:27.215Z,100505.38
2023-02-01T00:46:30.211Z,100495.75
2023-02-01T00:51:32.721Z,100497.25
2023-02-01T00:56:36.523Z,100509.03
2023-02-01T01:01:39.050Z,100506.78
2023-02-01T01:06:41.589Z,100510.50
2023-02-01T01:11:45.824Z,100504.84
2023-02-01T01:16:48.322Z,100505.88
2023-02-01T01:21:50.808Z,100504.75
2023-02-01T01:26:54.641Z,100486.53
2023-02-01T01:31:57.193Z,100502.13
2023-02-01T01:37:00.125Z,100495.25
2023-02-01T01:42:04.213Z,100503.84
2023-02-01T01:47:06.828Z,100492.53
2023-02-01T01:52:09.842Z,100489.00
2023-02-01T01:57:18.612Z,100480.09
2023-02-01T02:02:21.317Z,100474.44
2023-02-01T02:07:27.923Z,100469.22
2023-02-01T02:12:31.743Z,100468.53
2023-02-01T02:17:39.446Z,100459.94
2023-02-01T02:23:07.513Z,100449.41
2023-02-01T02:28:32.988Z,100426.88
2023-02-01T02:33:54.999Z,100437.75
2023-02-01T02:39:07.088Z,100442.28
2023-02-01T02:44:33.335Z,100465.13
2023-02-01T02:49:41.393Z,100489.25
2023-02-01T02:54:48.289Z,100486.63
2023-02-01T03:00:08.529Z,100473.97
2023-02-01T03:05:12.360Z,100453.03
2023-02-01T03:10:25.152Z,100451.53
2023-02-01T03:15:37.210Z,100434.31
2023-02-01T03:20:46.476Z,100447.53
2023-02-01T03:25:50.950Z,100432.97
2023-02-01T03:30:53.914Z,100405.34
2023-02-01T03:36:03.638Z,100400.81
2023-02-01T03:41:13.991Z,100401.38
2023-02-01T03:46:23.883Z,100401.59
2023-02-01T03:51:28.148Z,100394.84
2023-02-01T03:56:32.869Z,100389.22
2023-02-01T04:01:35.376Z,100378.72
2023-02-01T04:06:39.183Z,100358.78
2023-02-01T04:11:41.677Z,100350.88
2023-02-01T04:16:44.306Z,100355.75
2023-02-01T04:21:48.105Z,100332.56
2023-02-01T04:26:50.648Z,100338.91
2023-02-01T04:31:53.251Z,100328.69
2023-02-01T04:36:57.103Z,100328.69
2023-02-01T04:41:59.585Z,100328.81
2023-02-01T04:47:02.083Z,100324.63
2023-02-01T04:52:06.226Z,100310.97
2023-02-01T04:57:08.836Z,100317.72
2023-02-01T05:02:11.463Z,100298.06
2023-02-01T05:07:15.277Z,100307.19
2023-02-01T05:12:35.715Z,100285.22
2023-02-01T05:17:38.181Z,100285.97
2023-02-01T05:22:43.369Z,100285.69
2023-02-01T05:27:45.850Z,100274.72
2023-02-01T05:32:51.580Z,100282.16
2023-02-01T05:37:55.376Z,100287.81
2023-02-01T05:42:57.851Z,100287.19
2023-02-01T05:48:00.318Z,100282.22
2023-02-01T05:53:04.147Z,100282.81
2023-02-01T05:58:07.125Z,100283.59
2023-02-01T06:03:09.694Z,100287.81
2023-02-01T06:08:13.522Z,100278.06
2023-02-01T06:13:16.041Z,100289.38
2023-02-01T06:18:19.015Z,100286.00
2023-02-01T06:23:24.608Z,100295.28
2023-02-01T06:28:27.464Z,100294.28
2023-02-01T06:33:30.137Z,100281.63
2023-02-01T06:38:35.966Z,100278.72
2023-02-01T06:43:38.873Z,100283.25
2023-02-01T06:48:41.472Z,100274.59
2023-02-01T06:53:45.281Z,100280.16
2023-02-01T06:58:47.950Z,100277.59
2023-02-01T07:03:51.868Z,100280.75
2023-02-01T07:08:56.721Z,100291.97
2023-02-01T07:13:59.228Z,100303.97
2023-02-01T07:19:02.415Z,100294.56
2023-02-01T07:24:07.028Z,100302.47
2023-02-01T07:29:09.525Z,100298.16
2023-02-01T07:34:12.005Z,100295.56
2023-02-01T07:39:15.887Z,100290.50
2023-02-01T07:44:23.469Z,100280.09
2023-02-01T07:49:25.960Z,100282.81
2023-02-01T07:54:29.788Z,100282.19
2023-02-01T07:59:32.284Z,100285.16
2023-02-01T08:04:34.816Z,100292.03
2023-02-01T08:09:38.628Z,100292.75
2023-02-01T08:14:41.819Z,100298.72
2023-02-01T08:19:44.323Z,100298.94
2023-02-01T08:24:49.775Z,100296.56
2023-02-01T08:29:52.386Z,100296.00
2023-02-01T08:34:55.312Z,100286.00
2023-02-01T08:39:59.126Z,100283.84
2023-02-01T08:45:01.641Z,100283.72
2023-02-01T08:50:04.484Z,100283.44
2023-02-01T08:55:09.884Z,100293.50
2023-02-01T09:00:16.166Z,100292.19
2023-02-01T09:05:23.006Z,100299.53
2023-02-01T09:10:35.173Z,100289.28
2023-02-01T09:15:39.417Z,100294.03
2023-02-01T09:20:41.974Z,100296.91
2023-02-01T09:25:45.810Z,100291.59
2023-02-01T09:30:48.540Z,100296.88
2023-02-01T09:35:51.218Z,100284.63
2023-02-01T09:40:55.771Z,100282.81
2023-02-01T09:46:06.062Z,100294.97
2023-02-01T09:51:15.392Z,100293.13
2023-02-01T09:56:24.761Z,100295.22
2023-02-01T10:01:30.219Z,100283.38
2023-02-01T10:06:42.739Z,100276.31
2023-02-01T10:12:02.678Z,100285.72
2023-02-01T10:17:15.345Z,100282.09
2023-02-01T10:22:52.173Z,100280.13
2023-02-01T10:27:55.781Z,100293.50
2023-02-01T10:33:02.658Z,100296.38
2023-02-01T10:38:14.206Z,100295.88
2023-02-01T10:43:18.020Z,100294.41
2023-02-01T10:48:20.529Z,100288.38
2023-02-01T10:53:27.790Z,100287.19
2023-02-01T10:58:34.221Z,100292.53
2023-02-01T11:03:41.375Z,100285.78
2023-02-01T11:08:46.682Z,100287.78
2023-02-01T11:13:57.442Z,100281.50
2023-02-01T11:19:00.591Z,100286.94
2023-02-01T11:24:05.053Z,100281.94
2023-02-01T11:29:14.724Z,100264.53
2023-02-01T11:34:23.509Z,100261.84
2023-02-01T11:39:28.096Z,100256.19
2023-02-01T11:44:36.290Z,100250.91
2023-02-01T11:49:39.219Z,100243.13
2023-02-01T11:54:59.109Z,100246.72
2023-02-01T12:00:20.585Z,100241.72
2023-02-01T12:05:48.813Z,100241.31
2023-02-01T12:11:08.439Z,100237.06
2023-02-01T12:16:25.150Z,100210.22
2023-02-01T12:21:48.439Z,100203.97
2023-02-01T12:27:02.998Z,100176.41
2023-02-01T12:32:16.132Z,100219.41
2023-02-01T12:37:29.427Z,100197.28
2023-02-01T12:42:38.436Z,100179.63
2023-02-01T12:47:47.136Z,100173.69
2023-02-01T12:52:52.176Z,100156.22
2023-02-01T12:58:01.497Z,100160.19
2023-02-01T13:03:16.609Z,100154.09
2023-02-01T13:08:26.389Z,100164.91
2023-02-01T13:13:50.418Z,100152.88
2023-02-01T13:19:12.501Z,100146.94
2023-02-01T13:24:32.682Z,100140.19
2023-02-01T13:29:36.661Z,100146.13
2023-02-01T13:35:01.460Z,100144.44
2023-02-01T13:40:32.025Z,100138.19
2023-02-01T13:45:45.534Z,100133.41
2023-02-01T13:50:54.219Z,100145.66
2023-02-01T13:56:01.253Z,100162.31
2023-02-01T14:01:47.511Z,100231.97
2023-02-01T14:06:58.177Z,100208.25
2023-02-01T14:12:43.583Z,100217.91
2023-02-01T14:17:46.420Z,100175.88
2023-02-01T14:22:51.399Z,100176.25
2023-02-01T14:28:12.588Z,100190.59
2023-02-01T14:33:23.699Z,100192.31
2023-02-01T14:38:28.671Z,100218.00
2023-02-01T14:43:54.826Z,100198.25
2023-02-01T14:48:58.552Z,100207.28
2023-02-01T14:54:14.631Z,100209.25
2023-02-01T14:59:23.489Z,100183.59
2023-02-01T15:04:28.562Z,100195.44
2023-02-01T15:09:36.587Z,100194.47
2023-02-01T15:14:43.788Z,100194.47
2023-02-01T15:19:55.971Z,100196.84
2023-02-01T15:25:02.349Z,100172.75
2023-02-01T15:30:09.630Z,100170.63
2023-02-01T15:35:34.193Z,100186.91
2023-02-01T15:40:38.743Z,100184.66
2023-02-01T15:45:41.908Z,100193.03
2023-02-01T15:50:47.373Z,100190.88
2023-02-01T15:55:56.496Z,100198.44
2023-02-01T16:01:02.712Z,100210.50
2023-02-01T16:06:10.161Z,100209.63
2023-02-01T16:11:44.132Z,100215.38
2023-02-01T16:16:48.293Z,100211.66
2023-02-01T16:21:51.388Z,100216.75
2023-02-01T16:26:55.854Z,100211.56
2023-02-01T16:31:59.020Z,100204.66
2023-02-01T16:37:02.555Z,100204.88
2023-02-01T16:42:13.253Z,100210.41
2023-02-01T16:47:21.655Z,100208.50
2023-02-01T16:52:27.862Z,100217.97
2023-02-01T16:57:34.229Z,100211.84
2023-02-01T17:02:38.165Z,100222.28
2023-02-01T17:07:42.752Z,100225.63
2023-02-01T17:12:47.520Z,100220.28
2023-02-01T17:17:55.655Z,100228.78
2023-02-01T17:22:58.763Z,100228.41
2023-02-01T17:28:03.301Z,100231.66
2023-02-01T17:33:20.632Z,100226.97
2023-02-01T17:38:25.565Z,100226.72
2023-02-01T17:43:29.970Z,100223.66
2023-02-01T17:48:33.449Z,100217.97
2023-02-01T17:53:38.827Z,100224.41
2023-02-01T17:58:45.720Z,100209.22
2023-02-01T18:03:53.984Z,100215.09
2023-02-01T18:08:57.350Z,100214.63
2023-02-01T18:14:05.348Z,100216.44
2023-02-01T18:19:08.639Z,100216.34
2023-02-01T18:24:26.619Z,100218.16
2023-02-01T18:29:33.483Z,100214.72
2023-02-01T18:34:37.675Z,100218.84
2023-02-01T18:39:41.183Z,100200.41
2023-02-01T18:44:45.866Z,100183.84
2023-02-01T18:50:06.579Z,100196.97
2023-02-01T18:55:10.446Z,100198.91
2023-02-01T19:00:16.521Z,100200.91
2023-02-01T19:05:26.582Z,100200.03
2023-02-01T19:10:33.856Z,100200.03
2023-02-01T19:15:40.797Z,100195.13
2023-02-01T19:20:50.631Z,100200.84
2023-02-01T19:26:04.765Z,100191.34
2023-02-01T19:31:17.389Z,100185.75
2023-02-01T19:36:37.028Z,100191.19
2023-02-01T19:41:44.672Z,100180.16
2023-02-01T19:46:54.630Z,100169.75
2023-02-01T19:51:57.941Z,100170.63
2023-02-01T19:57:17.359Z,100168.34
2023-02-01T20:02:27.410Z,100168.53
2023-02-01T20:07:31.595Z,100168.03
2023-02-01T20:12:46.725Z,100166.56
2023-02-01T20:17:51.769Z,100169.25
2023-02-01T20:22:55.538Z,100181.81
2023-02-01T20:28:01.314Z,100186.38
2023-02-01T20:33:09.978Z,100201.91
2023-02-01T20:38:15.257Z,100193.56
2023-02-01T20:43:19.333Z,100185.94
2023-02-01T20:48:34.116Z,100175.81
2023-02-01T20:53:37.124Z,100165.38
2023-02-01T20:58:40.736Z,100167.69
2023-02-01T21:03:50.445Z,100156.28
2023-02-01T21:08:54.236Z,100160.38
2023-02-01T21:13:59.319Z,100141.22
2023-02-01T21:19:06.018Z,100135.00
2023-02-01T21:24:10.352Z,100144.25
2023-02-01T21:29:22.919Z,100143.22
2023-02-01T21:34:30.851Z,100134.00
2023-02-01T21:39:41.318Z,100124.97
2023-02-01T21:44:46.256Z,100124.19
2023-02-01T21:49:50.986Z,100126.88
2023-02-01T21:54:59.822Z,100112.75
2023-02-01T22:00:04.223Z,100113.06
2023-02-01T22:05:11.828Z,100099.94
2023-02-01T22:10:15.061Z,100105.94
2023-02-01T22:15:18.771Z,100080.78
2023-02-01T22:20:24.711Z,100086.31
2023-02-01T22:25:28.745Z,100096.81
2023-02-01T22:30:31.901Z,100085.47
2023-02-01T22:35:40.904Z,100094.91
2023-02-01T22:40:44.117Z,100075.66
2023-02-01T22:45:47.548Z,100084.47
2023-02-01T22:50:53.039Z,100089.00
2023-02-01T22:56:01.566Z,100094.50
2023-02-01T23:01:09.227Z,100096.19
2023-02-01T23:06:18.624Z,100102.41
2023-02-01T23:11:21.374Z,100110.84
2023-02-01T23:16:24.790Z,100119.56
2023-02-01T23:21:29.293Z,100123.47
2023-02-01T23:26:33.249Z,100121.16
2023-02-01T23:31:36.760Z,100145.00
2023-02-01T23:36:41.457Z,100143.69
2023-02-01T23:41:45.960Z,100163.53
2023-02-01T23:46:49.123Z,100149.28
2023-02-01T23:51:53.936Z,100170.34
2023-02-01T23:56:58.308Z,100178.63
